^^
Saratoga-Weather Station Historical Data
Daily Summary for January 16, 2021 Units:  English    Metric   Both
Daily Weekly Monthly Yearly Custom
  High: Low: Average:
Temperature: 55.8 °F 42.6 °F 48.4 °F
Dew Point: 50.2 °F 41.5 °F 45.7 °F
Humidity: 97% 75% 91%
Wind Speed: 4.9mph 0mph 0.5mph
Wind Gust: 7mph - -
Wind- - SSW
Pressure: 30.2 in 30.1 in -
Precipitation: 0 in    
Historical Graphs
 
 
Tabular Data for January 16, 2021
Time Temperature Dew Point Pressure Wind Wind Speed Wind Gust Humidity Rainfall Rate (Hourly) solar
00:02 51.8 °F 48.7 °F 30.1 in Calm   3 mph 89% 0 in 0 W/m2
00:07 51.4 °F 48.4 °F 30.1 in Calm   1 mph 89% 0 in 0 W/m2
00:12 51.4 °F 48.6 °F 30.1 in Calm   3 mph 90% 0 in 0 W/m2
00:17 51.3 °F 48.4 °F 30.1 in ESE 0.9 mph 2 mph 90% 0 in 0 W/m2
00:22 51.3 °F 48.4 °F 30.1 in Calm     90% 0 in 0 W/m2
00:27 51.3 °F 48.4 °F 30.1 in Calm   1 mph 90% 0 in 0 W/m2
00:32 51.1 °F 48.2 °F 30.1 in Calm   1 mph 90% 0 in 0 W/m2
00:37 50.9 °F 48 °F 30.1 in Calm   2 mph 90% 0 in 0 W/m2
00:42 50.7 °F 48.2 °F 30.1 in Calm   1 mph 91% 0 in 0 W/m2
00:47 50.7 °F 48.2 °F 30.1 in Calm   2 mph 91% 0 in 0 W/m2
00:52 50.5 °F 48 °F 30.1 in NNW 0.9 mph 2 mph 91% 0 in 0 W/m2
00:57 50.5 °F 48 °F 30.1 in Calm   2 mph 91% 0 in 0 W/m2
01:02 50.5 °F 48 °F 30.1 in NE 0.9 mph 1 mph 91% 0 in 0 W/m2
01:07 50.4 °F 47.8 °F 30.1 in NE 0.9 mph 2 mph 91% 0 in 0 W/m2
01:12 50 °F 47.5 °F 30.1 in Calm   1 mph 91% 0 in 0 W/m2
01:17 49.8 °F 47.7 °F 30.1 in East 2 mph 3 mph 92% 0 in 0 W/m2
01:22 49.8 °F 47.7 °F 30.1 in Calm   1 mph 92% 0 in 0 W/m2
01:27 49.6 °F 47.5 °F 30.1 in Calm   2 mph 92% 0 in 0 W/m2
01:32 49.6 °F 47.5 °F 30.1 in Calm   2 mph 92% 0 in 0 W/m2
01:37 49.6 °F 47.5 °F 30.1 in Calm   2 mph 92% 0 in 0 W/m2
01:42 49.5 °F 47.3 °F 30.1 in SSW 0.9 mph 1 mph 92% 0 in 0 W/m2
01:47 49.5 °F 47.3 °F 30.1 in Calm   1 mph 92% 0 in 0 W/m2
01:52 49.1 °F 46.9 °F 30.1 in Calm     92% 0 in 0 W/m2
01:57 48.7 °F 46.6 °F 30.1 in Calm     92% 0 in 0 W/m2
02:02 48.6 °F 46.6 °F 30.1 in NW 2 mph 2 mph 93% 0 in 0 W/m2
02:07 48.6 °F 46.6 °F 30.1 in WNW 0.9 mph 1 mph 93% 0 in 0 W/m2
02:12 48.6 °F 46.6 °F 30.1 in NW 0.9 mph 3 mph 93% 0 in 0 W/m2
02:17 48.6 °F 46.6 °F 30.1 in NE 0.9 mph 2 mph 93% 0 in 0 W/m2
02:22 48.6 °F 46.9 °F 30.1 in West 2 mph 2 mph 94% 0 in 0 W/m2
02:27 48.6 °F 46.9 °F 30.1 in Calm     94% 0 in 0 W/m2
02:32 48.6 °F 46.9 °F 30.1 in Calm     94% 0 in 0 W/m2
02:37 48.4 °F 46.4 °F 30.1 in Calm     93% 0 in 0 W/m2
02:42 48 °F 46 °F 30.1 in Calm     93% 0 in 0 W/m2
02:47 47.7 °F 45.7 °F 30.1 in Calm   2 mph 93% 0 in 0 W/m2
02:52 47.5 °F 45.5 °F 30.1 in East 0.9 mph 2 mph 93% 0 in 0 W/m2
02:57 47.3 °F 45.3 °F 30.1 in Calm   1 mph 93% 0 in 0 W/m2
03:03 47.1 °F 45.5 °F 30.1 in Calm   2 mph 94% 0 in 0 W/m2
03:08 47.1 °F 45.5 °F 30.1 in Calm     94% 0 in 0 W/m2
03:13 47.1 °F 45.5 °F 30.1 in Calm   2 mph 94% 0 in 0 W/m2
03:18 47.1 °F 45.5 °F 30.1 in Calm   1 mph 94% 0 in 0 W/m2
03:23 47.1 °F 45.5 °F 30.1 in Calm   2 mph 94% 0 in 0 W/m2
03:28 46.9 °F 45.3 °F 30.1 in Calm     94% 0 in 0 W/m2
03:33 46.8 °F 45.1 °F 30.1 in Calm     94% 0 in 0 W/m2
03:38 46.4 °F 44.8 °F 30.1 in Calm     94% 0 in 0 W/m2
03:43 46.2 °F 44.6 °F 30.1 in Calm     94% 0 in 0 W/m2
03:48 46.2 °F 44.6 °F 30.1 in ENE 2 mph 3 mph 94% 0 in 0 W/m2
03:53 46.2 °F 44.8 °F 30.1 in Calm   1 mph 95% 0 in 0 W/m2
03:58 46.2 °F 44.8 °F 30.1 in East 2 mph 3 mph 95% 0 in 0 W/m2
04:03 46.2 °F 44.8 °F 30.1 in East 0.9 mph 2 mph 95% 0 in 0 W/m2
04:08 46.2 °F 44.8 °F 30.1 in East 0.9 mph 3 mph 95% 0 in 0 W/m2
04:13 46 °F 44.6 °F 30.1 in East 0.9 mph 1 mph 95% 0 in 0 W/m2
04:18 45.9 °F 44.4 °F 30.1 in East 0.9 mph 3 mph 95% 0 in 0 W/m2
04:23 45.9 °F 44.4 °F 30.1 in Calm   1 mph 95% 0 in 0 W/m2
04:28 45.7 °F 44.4 °F 30.1 in Calm     95% 0 in 0 W/m2
04:33 45.7 °F 44.4 °F 30.1 in Calm   1 mph 95% 0 in 0 W/m2
04:38 45.5 °F 44.2 °F 30.1 in East 0.9 mph 2 mph 95% 0 in 0 W/m2
04:43 45.5 °F 44.2 °F 30.1 in Calm   1 mph 95% 0 in 0 W/m2
04:48 45.5 °F 44.2 °F 30.1 in NE 0.9 mph 2 mph 95% 0 in 0 W/m2
04:53 45.3 °F 44.1 °F 30.1 in Calm   1 mph 95% 0 in 0 W/m2
04:58 45.3 °F 44.1 °F 30.1 in ENE 0.9 mph 1 mph 95% 0 in 0 W/m2
05:03 45.3 °F 44.1 °F 30.1 in East 0.9 mph 2 mph 95% 0 in 0 W/m2
05:08 45.1 °F 43.9 °F 30.1 in Calm   1 mph 95% 0 in 0 W/m2
05:13 45.1 °F 43.9 °F 30.1 in NE 0.9 mph 2 mph 95% 0 in 0 W/m2
05:18 45 °F 43.7 °F 30.1 in East 0.9 mph 2 mph 95% 0 in 0 W/m2
05:23 45 °F 43.7 °F 30.1 in Calm   2 mph 95% 0 in 0 W/m2
05:28 44.8 °F 43.7 °F 30.1 in SE 2 mph 3 mph 96% 0 in 0 W/m2
05:33 44.6 °F 43.3 °F 30.1 in ESE 0.9 mph 3 mph 95% 0 in 0 W/m2
05:38 44.6 °F 43.3 °F 30.1 in SE 0.9 mph 3 mph 95% 0 in 0 W/m2
05:43 44.4 °F 43.2 °F 30.1 in Calm   3 mph 95% 0 in 0 W/m2
05:48 44.4 °F 43.3 °F 30.1 in East 2 mph 2 mph 96% 0 in 0 W/m2
05:53 44.2 °F 43.2 °F 30.1 in East 0.9 mph 3 mph 96% 0 in 0 W/m2
05:58 44.2 °F 43.2 °F 30.1 in Calm   4 mph 96% 0 in 0 W/m2
06:03 44.2 °F 43.2 °F 30.1 in ENE 0.9 mph 3 mph 96% 0 in 0 W/m2
06:08 44.1 °F 43 °F 30.1 in Calm   4 mph 96% 0 in 0 W/m2
06:13 44.1 °F 43 °F 30.1 in Calm   1 mph 96% 0 in 0 W/m2
06:18 44.1 °F 43 °F 30.1 in Calm   3 mph 96% 0 in 0 W/m2
06:23 44.1 °F 43 °F 30.1 in East 0.9 mph 2 mph 96% 0 in 0 W/m2
06:28 44.1 °F 43 °F 30.1 in Calm   3 mph 96% 0 in 0 W/m2
06:33 44.1 °F 43 °F 30.1 in NNW 0.9 mph 2 mph 96% 0 in 0 W/m2
06:38 44.1 °F 43 °F 30.1 in NNW 0.9 mph 2 mph 96% 0 in 0 W/m2
06:43 44.1 °F 43 °F 30.1 in North 0.9 mph 3 mph 96% 0 in 0 W/m2
06:48 43.9 °F 42.8 °F 30.1 in Calm   1 mph 96% 0 in 0 W/m2
06:53 43.9 °F 42.8 °F 30.1 in East 2 mph 3 mph 96% 0 in 0 W/m2
06:58 43.7 °F 42.6 °F 30.1 in Calm   2 mph 96% 0 in 0 W/m2
07:03 43.7 °F 42.6 °F 30.1 in Calm   3 mph 96% 0 in 0 W/m2
07:08 43.5 °F 42.4 °F 30.1 in Calm   1 mph 96% 0 in 0 W/m2
07:13 43.5 °F 42.4 °F 30.1 in Calm   1 mph 96% 0 in 0 W/m2
07:18 43.3 °F 42.3 °F 30.1 in ENE 0.9 mph 2 mph 96% 0 in 0 W/m2
07:23 43.3 °F 42.3 °F 30.1 in ENE 0.9 mph 1 mph 96% 0 in 0 W/m2
07:28 43.3 °F 42.3 °F 30.1 in NW 0.9 mph 2 mph 96% 0 in 0 W/m2
07:33 43.3 °F 42.3 °F 30.1 in NW 2 mph 2 mph 96% 0 in 0 W/m2
07:38 43.3 °F 42.3 °F 30.1 in Calm     96% 0 in 0 W/m2
07:43 43.3 °F 42.3 °F 30.1 in Calm     96% 0 in 0 W/m2
07:48 43.3 °F 42.3 °F 30.1 in Calm     96% 0 in 0 W/m2
07:53 43.2 °F 42.1 °F 30.1 in ENE 2 mph 2 mph 96% 0 in 0 W/m2
07:58 43.2 °F 42.1 °F 30.1 in Calm   2 mph 96% 0 in 0 W/m2
08:03 43.2 °F 42.1 °F 30.1 in North 2 mph 3 mph 96% 0 in 0 W/m2
08:08 43 °F 41.9 °F 30.1 in Calm   1 mph 96% 0 in 0 W/m2
08:13 43 °F 41.9 °F 30.1 in Calm     96% 0 in 5 W/m2
08:18 43 °F 41.9 °F 30.1 in Calm   3 mph 96% 0 in 5 W/m2
08:23 43 °F 41.9 °F 30.1 in Calm   3 mph 96% 0 in 5 W/m2
08:28 43 °F 41.9 °F 30.1 in Calm   1 mph 96% 0 in 9 W/m2
08:33 43 °F 41.9 °F 30.2 in Calm   3 mph 96% 0 in 14 W/m2
08:38 43 °F 41.9 °F 30.2 in North 0.9 mph 2 mph 96% 0 in 18 W/m2
08:43 42.8 °F 41.7 °F 30.2 in Calm   2 mph 96% 0 in 19 W/m2
08:48 43 °F 41.9 °F 30.2 in Calm   2 mph 96% 0 in 25 W/m2
08:53 42.8 °F 41.7 °F 30.2 in NNW 0.9 mph 1 mph 96% 0 in 30 W/m2
08:59 42.8 °F 41.7 °F 30.2 in Calm   1 mph 96% 0 in 32 W/m2
09:04 42.8 °F 41.7 °F 30.2 in Calm     96% 0 in 35 W/m2
09:09 42.8 °F 41.7 °F 30.2 in Calm     96% 0 in 39 W/m2
09:14 42.6 °F 41.5 °F 30.2 in Calm     96% 0 in 49 W/m2
09:19 42.8 °F 41.7 °F 30.2 in Calm     96% 0 in 60 W/m2
09:24 43 °F 42.3 °F 30.2 in Calm   2 mph 97% 0 in 56 W/m2
09:29 43 °F 42.3 °F 30.2 in Calm   3 mph 97% 0 in 58 W/m2
09:34 43 °F 41.9 °F 30.2 in Calm   1 mph 96% 0 in 67 W/m2
09:39 42.8 °F 41.7 °F 30.2 in SW 0.9 mph 1 mph 96% 0 in 65 W/m2
09:44 43 °F 42.3 °F 30.2 in NNW 0.9 mph 2 mph 97% 0 in 60 W/m2
09:49 43 °F 42.3 °F 30.2 in NE 0.9 mph 1 mph 97% 0 in 63 W/m2
09:54 43 °F 42.3 °F 30.2 in Calm   1 mph 97% 0 in 72 W/m2
09:59 43 °F 42.3 °F 30.2 in Calm   2 mph 97% 0 in 62 W/m2
10:04 43 °F 42.3 °F 30.2 in Calm   3 mph 97% 0 in 60 W/m2
10:09 42.8 °F 42.1 °F 30.2 in Calm   2 mph 97% 0 in 69 W/m2
10:14 43 °F 42.3 °F 30.2 in Calm   1 mph 97% 0 in 76 W/m2
10:19 43 °F 42.3 °F 30.2 in Calm     97% 0 in 90 W/m2
10:24 43 °F 42.3 °F 30.2 in Calm   1 mph 97% 0 in 84 W/m2
10:29 43 °F 42.3 °F 30.2 in Calm   2 mph 97% 0 in 95 W/m2
10:34 43.2 °F 42.4 °F 30.2 in Calm   1 mph 97% 0 in 105 W/m2
10:39 43.2 °F 42.4 °F 30.2 in NE 2 mph 3 mph 97% 0 in 114 W/m2
10:44 43.2 °F 42.4 °F 30.2 in Calm   3 mph 97% 0 in 142 W/m2
10:49 43.3 °F 42.6 °F 30.2 in Calm   1 mph 97% 0 in 135 W/m2
10:54 43.5 °F 42.8 °F 30.2 in Calm   2 mph 97% 0 in 149 W/m2
10:59 43.7 °F 43 °F 30.2 in NW 0.9 mph 2 mph 97% 0 in 146 W/m2
11:04 43.9 °F 43.2 °F 30.2 in Calm   1 mph 97% 0 in 134 W/m2
11:09 44.1 °F 43.3 °F 30.2 in NNW 2 mph 2 mph 97% 0 in 137 W/m2
11:14 44.2 °F 43.5 °F 30.2 in Calm   3 mph 97% 0 in 128 W/m2
11:19 44.1 °F 43.3 °F 30.2 in Calm   1 mph 97% 0 in 153 W/m2
11:24 44.2 °F 43.5 °F 30.2 in Calm   3 mph 97% 0 in 162 W/m2
11:29 44.2 °F 43.5 °F 30.2 in Calm   2 mph 97% 0 in 160 W/m2
11:34 44.4 °F 43.7 °F 30.2 in ENE 0.9 mph 2 mph 97% 0 in 167 W/m2
11:39 44.6 °F 43.9 °F 30.2 in NNW 0.9 mph 1 mph 97% 0 in 148 W/m2
11:44 44.8 °F 44.1 °F 30.2 in Calm     97% 0 in 163 W/m2
11:49 45 °F 44.2 °F 30.2 in NW 0.9 mph 3 mph 97% 0 in 185 W/m2
11:54 45.1 °F 44.4 °F 30.2 in NW 2 mph 2 mph 97% 0 in 248 W/m2
11:59 45.3 °F 44.6 °F 30.2 in NW 0.9 mph 3 mph 97% 0 in 308 W/m2
12:04 45.7 °F 45 °F 30.2 in NNW 0.9 mph 2 mph 97% 0 in 274 W/m2
12:09 45.9 °F 45.1 °F 30.2 in WSW 0.9 mph 3 mph 97% 0 in 230 W/m2
12:14 46.2 °F 45.5 °F 30.2 in NW 0.9 mph 2 mph 97% 0 in 230 W/m2
12:19 46.8 °F 46 °F 30.2 in Calm   1 mph 97% 0 in 213 W/m2
12:24 47.1 °F 46.4 °F 30.2 in East 2 mph 2 mph 97% 0 in 114 W/m2
12:29 47.7 °F 46.6 °F 30.2 in Calm   2 mph 96% 0 in 134 W/m2
12:34 48 °F 46.9 °F 30.2 in WSW 4.9 mph 7 mph 96% 0 in 225 W/m2
12:39 48.4 °F 46.9 °F 30.2 in West 2 mph 3 mph 95% 0 in 188 W/m2
12:44 48.6 °F 46.9 °F 30.2 in West 0.9 mph 3 mph 94% 0 in 185 W/m2
12:49 48.7 °F 46.8 °F 30.2 in Calm     93% 0 in 309 W/m2
12:54 49.3 °F 47.3 °F 30.2 in WSW 0.9 mph 3 mph 93% 0 in 418 W/m2
12:59 49.6 °F 47.5 °F 30.2 in West 2 mph 3 mph 92% 0 in 519 W/m2
13:04 50.4 °F 47.8 °F 30.2 in North 2 mph 3 mph 91% 0 in 473 W/m2
13:09 50.7 °F 47.7 °F 30.2 in WSW 0.9 mph 4 mph 89% 0 in 123 W/m2
13:14 51.1 °F 47.7 °F 30.2 in West 2 mph 3 mph 88% 0 in 95 W/m2
13:19 51.1 °F 47.7 °F 30.1 in Calm   4 mph 88% 0 in 93 W/m2
13:24 51.3 °F 47.5 °F 30.1 in East 2 mph 3 mph 87% 0 in 70 W/m2
13:29 51.4 °F 47.5 °F 30.1 in SW 0.9 mph 2 mph 86% 0 in 79 W/m2
13:34 51.4 °F 47.5 °F 30.1 in Calm   3 mph 86% 0 in 311 W/m2
13:39 51.6 °F 47.3 °F 30.1 in WSW 0.9 mph 2 mph 85% 0 in 146 W/m2
13:44 52.2 °F 47.8 °F 30.1 in Calm   1 mph 85% 0 in 95 W/m2
13:49 52.3 °F 47.7 °F 30.1 in East 0.9 mph 2 mph 84% 0 in 91 W/m2
13:54 52.7 °F 48.4 °F 30.1 in Calm   3 mph 85% 0 in 123 W/m2
13:59 52.9 °F 47.8 °F 30.1 in NNW 0.9 mph 2 mph 83% 0 in 120 W/m2
14:04 53.2 °F 48.2 °F 30.1 in East 2 mph 4 mph 83% 0 in 91 W/m2
14:09 53.2 °F 47.8 °F 30.1 in East 0.9 mph 3 mph 82% 0 in 79 W/m2
14:14 53.4 °F 48 °F 30.1 in NNE 0.9 mph 4 mph 82% 0 in 93 W/m2
14:19 53.8 °F 48 °F 30.1 in Calm   1 mph 81% 0 in 102 W/m2
14:24 54 °F 48 °F 30.1 in NNE 2 mph 2 mph 80% 0 in 105 W/m2
14:29 54 °F 48.2 °F 30.1 in Calm     81% 0 in 135 W/m2
14:34 54 °F 48.6 °F 30.1 in Calm     82% 0 in 172 W/m2
14:39 54.1 °F 48.4 °F 30.1 in NNE 0.9 mph 1 mph 81% 0 in 120 W/m2
14:44 54.1 °F 48 °F 30.1 in Calm   2 mph 80% 0 in 167 W/m2
14:49 54.3 °F 48 °F 30.1 in NE 0.9 mph 3 mph 79% 0 in 172 W/m2
14:54 54.7 °F 48.4 °F 30.1 in NE 0.9 mph 2 mph 79% 0 in 151 W/m2
14:59 54.9 °F 48.2 °F 30.1 in Calm   3 mph 78% 0 in 176 W/m2
15:04 55 °F 48.4 °F 30.1 in Calm   3 mph 78% 0 in 176 W/m2
15:09 55.2 °F 48.2 °F 30.1 in NE 0.9 mph 2 mph 77% 0 in 185 W/m2
15:14 55.2 °F 47.8 °F 30.1 in Calm     76% 0 in 171 W/m2
15:19 55.6 °F 48.9 °F 30.1 in Calm   1 mph 78% 0 in 171 W/m2
15:24 55.6 °F 48.2 °F 30.1 in ESE 2 mph 4 mph 76% 0 in 174 W/m2
15:29 55.8 °F 48.4 °F 30.1 in Calm   2 mph 76% 0 in 128 W/m2
15:34 55.8 °F 48.4 °F 30.1 in East 2 mph 2 mph 76% 0 in 95 W/m2
15:39 55.6 °F 47.8 °F 30.1 in Calm   1 mph 75% 0 in 84 W/m2
15:44 55.6 °F 48.6 °F 30.1 in NW 0.9 mph 1 mph 77% 0 in 84 W/m2
15:49 55.6 °F 48.9 °F 30.1 in NW 0.9 mph 1 mph 78% 0 in 98 W/m2
15:54 55.2 °F 47.8 °F 30.1 in NW 2 mph 2 mph 76% 0 in 100 W/m2
15:59 55.2 °F 48.2 °F 30.1 in Calm     77% 0 in 97 W/m2
16:04 55.2 °F 48.2 °F 30.1 in Calm   2 mph 77% 0 in 93 W/m2
16:09 55.2 °F 48.2 °F 30.1 in West 2 mph 3 mph 77% 0 in 95 W/m2
16:14 55.2 °F 48.2 °F 30.1 in Calm   1 mph 77% 0 in 100 W/m2
16:19 55.2 °F 48.6 °F 30.1 in Calm   3 mph 78% 0 in 84 W/m2
16:24 55.2 °F 48.2 °F 30.1 in Calm   2 mph 77% 0 in 76 W/m2
16:29 55.2 °F 48.6 °F 30.1 in West 0.9 mph 1 mph 78% 0 in 72 W/m2
16:34 55.2 °F 48.7 °F 30.1 in Calm   2 mph 79% 0 in 65 W/m2
16:39 55.2 °F 49.1 °F 30.1 in Calm     80% 0 in 62 W/m2
16:44 55.2 °F 49.1 °F 30.1 in Calm     80% 0 in 72 W/m2
16:49 55.2 °F 49.8 °F 30.1 in Calm     82% 0 in 69 W/m2
16:54 55.2 °F 49.8 °F 30.1 in West 0.9 mph 1 mph 82% 0 in 65 W/m2
16:59 55.2 °F 50.2 °F 30.1 in Calm   1 mph 83% 0 in 62 W/m2
17:04 55 °F 50 °F 30.1 in Calm     83% 0 in 58 W/m2
17:09 55 °F 49.6 °F 30.1 in Calm     82% 0 in 47 W/m2
17:14 55 °F 49.6 °F 30.1 in Calm     82% 0 in 42 W/m2
17:19 54.9 °F 49.8 °F 30.1 in Calm     83% 0 in 39 W/m2
17:24 54.7 °F 49.6 °F 30.1 in Calm     83% 0 in 40 W/m2
17:29 54.7 °F 50 °F 30.1 in Calm     84% 0 in 39 W/m2
17:34 54.3 °F 49.6 °F 30.1 in Calm   1 mph 84% 0 in 33 W/m2
17:39 54.1 °F 49.1 °F 30.1 in Calm   1 mph 83% 0 in 32 W/m2
17:44 53.8 °F 49.1 °F 30.1 in Calm     84% 0 in 42 W/m2
17:49 53.4 °F 48.7 °F 30.1 in Calm   1 mph 84% 0 in 30 W/m2
17:54 53.2 °F 48.6 °F 30.1 in West 0.9 mph 1 mph 84% 0 in 28 W/m2
17:59 52.9 °F 48.2 °F 30.1 in Calm   2 mph 84% 0 in 28 W/m2
18:05 52.5 °F 47.8 °F 30.1 in West 2 mph   84% 0 in 28 W/m2
18:10 52.2 °F 47.8 °F 30.1 in West 0.9 mph 2 mph 85% 0 in 18 W/m2
18:15 51.6 °F 47.3 °F 30.1 in West 2 mph 2 mph 85% 0 in 14 W/m2
18:20 51.4 °F 47.5 °F 30.1 in West 0.9 mph 2 mph 86% 0 in 16 W/m2
18:25 51.3 °F 47.3 °F 30.1 in West 0.9 mph 2 mph 86% 0 in 14 W/m2
18:30 51.1 °F 47.3 °F 30.1 in Calm     87% 0 in 11 W/m2
18:35 50.9 °F 47.1 °F 30.1 in Calm   2 mph 87% 0 in 7 W/m2
18:40 50.5 °F 46.8 °F 30.1 in Calm   1 mph 87% 0 in 0 W/m2
18:45 50.4 °F 46.6 °F 30.1 in Calm     87% 0 in 0 W/m2
18:50 50.2 °F 46.8 °F 30.1 in Calm     88% 0 in 0 W/m2
18:55 50 °F 46.6 °F 30.1 in Calm     88% 0 in 0 W/m2
19:00 49.8 °F 46.8 °F 30.1 in Calm     89% 0 in 0 W/m2
19:05 49.8 °F 46.8 °F 30.1 in Calm   2 mph 89% 0 in 0 W/m2
19:10 50 °F 47.1 °F 30.1 in West 0.9 mph 4 mph 90% 0 in 0 W/m2
19:15 50.5 °F 47.7 °F 30.1 in West 0.9 mph 2 mph 90% 0 in 0 W/m2
19:20 50.7 °F 47.8 °F 30.1 in West 2.9 mph 4 mph 90% 0 in 0 W/m2
19:25 51.1 °F 48 °F 30.1 in WNW 2 mph 2 mph 89% 0 in 0 W/m2
19:30 51.3 °F 48.2 °F 30.1 in West 2 mph 3 mph 89% 0 in 0 W/m2
19:35 51.6 °F 48.2 °F 30.1 in West 2 mph 2 mph 88% 0 in 0 W/m2
19:40 51.6 °F 48.2 °F 30.1 in West 2 mph 3 mph 88% 0 in 0 W/m2
19:45 51.8 °F 48.4 °F 30.1 in West 0.9 mph 2 mph 88% 0 in 0 W/m2
19:50 51.8 °F 48.4 °F 30.1 in West 2 mph 3 mph 88% 0 in 0 W/m2
19:55 51.8 °F 48.4 °F 30.1 in WSW 0.9 mph 3 mph 88% 0 in 0 W/m2
20:00 51.6 °F 48.2 °F 30.1 in WSW 2 mph 3 mph 88% 0 in 0 W/m2
20:05 51.6 °F 48.2 °F 30.1 in West 2.9 mph 3 mph 88% 0 in 0 W/m2
20:10 51.6 °F 48.2 °F 30.1 in West 0.9 mph 2 mph 88% 0 in 0 W/m2
20:15 51.6 °F 48.2 °F 30.1 in West 0.9 mph 2 mph 88% 0 in 0 W/m2
20:20 51.4 °F 48 °F 30.1 in West 0.9 mph 2 mph 88% 0 in 0 W/m2
20:25 51.4 °F 48 °F 30.1 in Calm   2 mph 88% 0 in 0 W/m2
20:30 51.4 °F 48 °F 30.1 in Calm   1 mph 88% 0 in 0 W/m2
20:35 51.4 °F 48 °F 30.1 in Calm     88% 0 in 0 W/m2
20:40 51.3 °F 47.8 °F 30.1 in West 2 mph 2 mph 88% 0 in 0 W/m2
20:45 51.1 °F 47.7 °F 30.1 in Calm   1 mph 88% 0 in 0 W/m2
20:50 51.1 °F 47.7 °F 30.1 in Calm   1 mph 88% 0 in 0 W/m2
20:55 50.7 °F 47.3 °F 30.1 in Calm   2 mph 88% 0 in 0 W/m2
21:00 50.4 °F 46.9 °F 30.1 in Calm     88% 0 in 0 W/m2
21:05 50.2 °F 46.8 °F 30.1 in Calm   2 mph 88% 0 in 0 W/m2
21:10 49.6 °F 46.2 °F 30.1 in Calm     88% 0 in 0 W/m2
21:15 49.5 °F 46.4 °F 30.1 in Calm     89% 0 in 0 W/m2
21:20 49.1 °F 46 °F 30.1 in Calm     89% 0 in 0 W/m2
21:25 48.7 °F 45.9 °F 30.1 in Calm     90% 0 in 0 W/m2
21:30 48.6 °F 45.7 °F 30.1 in Calm     90% 0 in 0 W/m2
21:35 48.4 °F 45.5 °F 30.1 in Calm     90% 0 in 0 W/m2
21:40 48.2 °F 45.7 °F 30.1 in Calm     91% 0 in 0 W/m2
21:45 47.8 °F 45.3 °F 30.1 in Calm     91% 0 in 0 W/m2
21:50 47.8 °F 45.3 °F 30.1 in Calm     91% 0 in 0 W/m2
21:55 47.7 °F 45.5 °F 30.1 in Calm     92% 0 in 0 W/m2
22:00 47.7 °F 45.5 °F 30.1 in Calm     92% 0 in 0 W/m2
22:05 47.7 °F 45.5 °F 30.1 in Calm     92% 0 in 0 W/m2
22:10 47.5 °F 45.5 °F 30.1 in Calm     93% 0 in 0 W/m2
22:15 47.5 °F 45.5 °F 30.1 in Calm     93% 0 in 0 W/m2
22:20 47.3 °F 45.3 °F 30.1 in Calm     93% 0 in 0 W/m2
22:25 47.3 °F 45.3 °F 30.1 in Calm     93% 0 in 0 W/m2
22:30 47.1 °F 45.1 °F 30.1 in Calm     93% 0 in 0 W/m2
22:35 46.9 °F 45 °F 30.1 in Calm     93% 0 in 0 W/m2
22:40 46.8 °F 44.8 °F 30.1 in Calm     93% 0 in 0 W/m2
22:45 46.8 °F 44.8 °F 30.1 in Calm     93% 0 in 0 W/m2
22:50 46.4 °F 44.4 °F 30.1 in Calm     93% 0 in 0 W/m2
22:55 46.2 °F 44.2 °F 30.1 in Calm     93% 0 in 0 W/m2
23:01 46 °F 44.1 °F 30.1 in Calm     93% 0 in 0 W/m2
23:06 45.9 °F 43.9 °F 30.1 in Calm     93% 0 in 0 W/m2
23:11 45.7 °F 44.1 °F 30.1 in Calm     94% 0 in 0 W/m2
23:16 45.7 °F 43.7 °F 30.1 in Calm     93% 0 in 0 W/m2
23:21 45.5 °F 43.9 °F 30.1 in Calm     94% 0 in 0 W/m2
23:26 45.3 °F 43.7 °F 30.1 in Calm     94% 0 in 0 W/m2
23:31 45.5 °F 43.9 °F 30.1 in Calm     94% 0 in 0 W/m2
23:36 45.7 °F 44.1 °F 30.1 in Calm     94% 0 in 0 W/m2
23:41 45.7 °F 44.4 °F 30.1 in Calm     95% 0 in 0 W/m2
23:46 45.7 °F 44.4 °F 30.1 in Calm     95% 0 in 0 W/m2
23:51 45.9 °F 44.4 °F 30.1 in Calm     95% 0 in 0 W/m2
23:56 45.9 °F 44.4 °F 30.1 in Calm     95% 0 in 0 W/m2
Juneau County Weather
Compliments of Weather Underground - 4 mb